sensor_id;sensor_type;location;lat;lon;timestamp;pressure;altitude;pressure_sealevel;temperature;humidity
62011;BME280;47967;51.756;10.174;2024-01-30T05:02:03;100965.72;;;-0.38;100.00
62011;BME280;47967;51.756;10.174;2024-01-30T05:06:06;100963.47;;;-0.44;100.00
62011;BME280;47967;51.756;10.174;2024-01-30T05:10:09;100962.94;;;-0.50;100.00
62011;BME280;47967;51.756;10.174;2024-01-30T05:14:11;100971.00;;;-0.51;100.00
62011;BME280;47967;51.756;10.174;2024-01-30T05:18:17;100972.66;;;-0.50;100.00
62011;BME280;47967;51.756;10.174;2024-01-30T05:22:20;100967.69;;;-0.55;100.00
62011;BME280;47967;51.756;10.174;2024-01-30T05:26:22;100965.22;;;-0.58;100.00
62011;BME280;47967;51.756;10.174;2024-01-30T05:30:25;100966.91;;;-0.57;100.00
62011;BME280;47967;51.756;10.174;2024-01-30T05:34:29;100966.09;;;-0.57;100.00
62011;BME280;47967;51.756;10.174;2024-01-30T05:38:31;100967.97;;;-0.59;100.00
62011;BME280;47967;51.756;10.174;2024-01-30T05:42:35;100959.81;;;-0.56;100.00
62011;BME280;47967;51.756;10.174;2024-01-30T05:46:38;100964.81;;;-0.52;100.00
62011;BME280;47967;51.756;10.174;2024-01-30T05:50:41;100965.06;;;-0.42;100.00
62011;BME280;47967;51.756;10.174;2024-01-30T05:54:44;100956.28;;;-0.42;100.00
62011;BME280;47967;51.756;10.174;2024-01-30T05:58:47;100950.03;;;-0.41;100.00
62011;BME280;47967;51.756;10.174;2024-01-30T06:02:49;100955.72;;;-0.47;100.00
62011;BME280;47967;51.756;10.174;2024-01-30T06:06:53;100955.53;;;-0.44;100.00
62011;BME280;47967;51.756;10.174;2024-01-30T06:10:56;100957.34;;;-0.45;100.00
62011;BME280;47967;51.756;10.174;2024-01-30T06:14:58;100970.78;;;-0.48;100.00
62011;BME280;47967;51.756;10.174;2024-01-30T06:19:00;100971.53;;;-0.46;100.00
62011;BME280;47967;51.756;10.174;2024-01-30T06:23:05;100962.63;;;-0.45;100.00
62011;BME280;47967;51.756;10.174;2024-01-30T06:27:07;100960.72;;;-0.43;100.00
62011;BME280;47967;51.756;10.174;2024-01-30T06:31:10;100966.13;;;-0.44;100.00
62011;BME280;47967;51.756;10.174;2024-01-30T06:35:13;100958.16;;;-0.44;100.00
62011;BME280;47967;51.756;10.174;2024-01-30T06:39:17;100964.78;;;-0.37;100.00
62011;BME280;47967;51.756;10.174;2024-01-30T06:43:20;100957.38;;;-0.32;100.00
62011;BME280;47967;51.756;10.174;2024-01-30T06:47:24;100948.56;;;-0.33;100.00
62011;BME280;47967;51.756;10.174;2024-01-30T06:51:26;100960.25;;;-0.35;100.00
62011;BME280;47967;51.756;10.174;2024-01-30T06:55:30;100953.78;;;-0.31;100.00
62011;BME280;47967;51.756;10.174;2024-01-30T06:59:33;100948.34;;;-0.29;100.00
62011;BME280;47967;51.756;10.174;2024-01-30T07:03:36;100953.25;;;-0.23;100.00
62011;BME280;47967;51.756;10.174;2024-01-30T07:07:38;100953.06;;;-0.20;100.00
62011;BME280;47967;51.756;10.174;2024-01-30T07:11:42;100950.13;;;-0.15;100.00
62011;BME280;47967;51.756;10.174;2024-01-30T07:15:44;100958.84;;;-0.13;100.00
62011;BME280;47967;51.756;10.174;2024-01-30T07:19:47;100945.34;;;-0.10;100.00
62011;BME280;47967;51.756;10.174;2024-01-30T07:23:50;100952.06;;;-0.05;100.00
62011;BME280;47967;51.756;10.174;2024-01-30T07:27:54;100958.03;;;-0.01;100.00
62011;BME280;47967;51.756;10.174;2024-01-30T07:31:56;100962.63;;;0.10;100.00
62011;BME280;47967;51.756;10.174;2024-01-30T07:35:59;100953.91;;;0.21;100.00
62011;BME280;47967;51.756;10.174;2024-01-30T07:40:01;100954.34;;;0.27;100.00
62011;BME280;47967;51.756;10.174;2024-01-30T07:44:06;100959.88;;;0.37;100.00
62011;BME280;47967;51.756;10.174;2024-01-30T07:48:09;100953.00;;;0.47;100.00
62011;BME280;47967;51.756;10.174;2024-01-30T07:52:11;100955.53;;;0.62;100.00
62011;BME280;47967;51.756;10.174;2024-01-30T07:56:14;100960.78;;;0.63;100.00
62011;BME280;47967;51.756;10.174;2024-01-30T08:00:19;100958.09;;;0.76;100.00
62011;BME280;47967;51.756;10.174;2024-01-30T08:04:22;100962.13;;;0.95;100.00
62011;BME280;47967;51.756;10.174;2024-01-30T08:08:25;100951.59;;;1.06;100.00
62011;BME280;47967;51.756;10.174;2024-01-30T08:12:28;100953.06;;;1.23;100.00
62011;BME280;47967;51.756;10.174;2024-01-30T08:16:32;100949.06;;;1.42;100.00
62011;BME280;47967;51.756;10.174;2024-01-30T08:20:34;100941.88;;;1.55;100.00
62011;BME280;47967;51.756;10.174;2024-01-30T08:24:37;100943.31;;;1.72;100.00
62011;BME280;47967;51.756;10.174;2024-01-30T08:28:41;100946.50;;;1.89;100.00
62011;BME280;47967;51.756;10.174;2024-01-30T08:32:45;100953.56;;;2.01;100.00
62011;BME280;47967;51.756;10.174;2024-01-30T08:36:48;100959.00;;;2.24;100.00
62011;BME280;47967;51.756;10.174;2024-01-30T08:40:50;100956.34;;;2.35;100.00
62011;BME280;47967;51.756;10.174;2024-01-30T08:44:53;100949.50;;;2.55;100.00
62011;BME280;47967;51.756;10.174;2024-01-30T08:48:58;100954.97;;;2.77;100.00
62011;BME280;47967;51.756;10.174;2024-01-30T08:53:01;100961.41;;;2.97;100.00
62011;BME280;47967;51.756;10.174;2024-01-30T08:57:04;100947.81;;;3.11;100.00
62011;BME280;47967;51.756;10.174;2024-01-30T09:01:06;100946.00;;;3.23;100.00
62011;BME280;47967;51.756;10.174;2024-01-30T09:05:10;100954.34;;;3.41;100.00
62011;BME280;47967;51.756;10.174;2024-01-30T09:09:13;100953.75;;;3.38;100.00
62011;BME280;47967;51.756;10.174;2024-01-30T09:13:16;100949.25;;;3.49;100.00
62011;BME280;47967;51.756;10.174;2024-01-30T09:17:19;100947.34;;;3.73;100.00
62011;BME280;47967;51.756;10.174;2024-01-30T09:21:22;100955.91;;;3.88;100.00
62011;BME280;47967;51.756;10.174;2024-01-30T09:25:25;100945.59;;;3.83;100.00
62011;BME280;47967;51.756;10.174;2024-01-30T09:29:27;100951.97;;;4.03;100.00
62011;BME280;47967;51.756;10.174;2024-01-30T09:33:30;100955.84;;;4.31;100.00
62011;BME280;47967;51.756;10.174;2024-01-30T09:37:34;100955.59;;;4.35;100.00
62011;BME280;47967;51.756;10.174;2024-01-30T09:41:40;100949.06;;;4.48;100.00
62011;BME280;47967;51.756;10.174;2024-01-30T09:45:44;100959.47;;;4.73;100.00
62011;BME280;47967;51.756;10.174;2024-01-30T09:49:49;100953.75;;;4.77;100.00
62011;BME280;47967;51.756;10.174;2024-01-30T09:53:53;100961.00;;;4.96;100.00
62011;BME280;47967;51.756;10.174;2024-01-30T09:57:56;100966.91;;;5.31;100.00
62011;BME280;47967;51.756;10.174;2024-01-30T10:02:00;100960.94;;;5.68;100.00
62011;BME280;47967;51.756;10.174;2024-01-30T10:06:05;100951.13;;;6.08;100.00
62011;BME280;47967;51.756;10.174;2024-01-30T10:10:09;100956.03;;;6.42;100.00
62011;BME280;47967;51.756;10.174;2024-01-30T10:14:12;100964.75;;;6.54;100.00
62011;BME280;47967;51.756;10.174;2024-01-30T10:18:14;100962.06;;;6.64;100.00
62011;BME280;47967;51.756;10.174;2024-01-30T10:22:17;100961.59;;;6.78;100.00
62011;BME280;47967;51.756;10.174;2024-01-30T10:26:21;100960.50;;;7.09;100.00
62011;BME280;47967;51.756;10.174;2024-01-30T10:30:23;100959.56;;;7.28;100.00
62011;BME280;47967;51.756;10.174;2024-01-30T10:34:26;100959.03;;;7.52;100.00
62011;BME280;47967;51.756;10.174;2024-01-30T10:38:29;100947.63;;;7.68;100.00
62011;BME280;47967;51.756;10.174;2024-01-30T10:42:33;100941.00;;;7.80;100.00
62011;BME280;47967;51.756;10.174;2024-01-30T10:46:38;100934.50;;;8.01;100.00
62011;BME280;47967;51.756;10.174;2024-01-30T10:50:41;100930.63;;;8.22;100.00
62011;BME280;47967;51.756;10.174;2024-01-30T10:54:54;100927.78;;;8.23;100.00
62011;BME280;47967;51.756;10.174;2024-01-30T10:58:58;100930.03;;;8.10;100.00
62011;BME280;47967;51.756;10.174;2024-01-30T11:03:01;100921.03;;;8.19;100.00
62011;BME280;47967;51.756;10.174;2024-01-30T11:07:13;100924.84;;;8.53;100.00
62011;BME280;47967;51.756;10.174;2024-01-30T11:11:16;100926.88;;;8.85;100.00
62011;BME280;47967;51.756;10.174;2024-01-30T11:15:21;100922.56;;;8.92;100.00
62011;BME280;47967;51.756;10.174;2024-01-30T11:19:26;100906.16;;;9.12;100.00
62011;BME280;47967;51.756;10.174;2024-01-30T11:23:30;100905.00;;;9.31;100.00
62011;BME280;47967;51.756;10.174;2024-01-30T11:27:32;100905.75;;;9.41;100.00
62011;BME280;47967;51.756;10.174;2024-01-30T11:31:36;100894.81;;;9.68;100.00
62011;BME280;47967;51.756;10.174;2024-01-30T11:35:40;100889.47;;;9.76;100.00
62011;BME280;47967;51.756;10.174;2024-01-30T11:39:43;100887.63;;;9.76;100.00
62011;BME280;47967;51.756;10.174;2024-01-30T11:43:51;100874.13;;;9.68;100.00
62011;BME280;47967;51.756;10.174;2024-01-30T11:47:55;100860.16;;;9.73;100.00
62011;BME280;47967;51.756;10.174;2024-01-30T11:51:58;100862.03;;;9.89;100.00
62011;BME280;47967;51.756;10.174;2024-01-30T11:56:01;100863.84;;;9.88;100.00
62011;BME280;47967;51.756;10.174;2024-01-30T12:00:04;100861.34;;;10.03;98.80
62011;BME280;47967;51.756;10.174;2024-01-30T12:04:12;100866.72;;;9.95;98.41
62011;BME280;47967;51.756;10.174;2024-01-30T12:08:15;100881.41;;;9.92;99.10
62011;BME280;47967;51.756;10.174;2024-01-30T12:12:18;100877.84;;;10.00;99.78
62011;BME280;47967;51.756;10.174;2024-01-30T12:16:20;100866.72;;;9.95;98.41
62011;BME280;47967;51.756;10.174;2024-01-30T12:20:24;100872.28;;;10.10;100.00
62011;BME280;47967;51.756;10.174;2024-01-30T12:24:27;100870.78;;;10.16;100.00
62011;BME280;47967;51.756;10.174;2024-01-30T12:28:31;100870.09;;;10.22;100.00
62011;BME280;47967;51.756;10.174;2024-01-30T12:32:34;100867.72;;;10.27;100.00
62011;BME280;47967;51.756;10.174;2024-01-30T12:36:38;100875.94;;;10.34;100.00
62011;BME280;47967;51.756;10.174;2024-01-30T12:40:41;100862.47;;;10.34;100.00
62011;BME280;47967;51.756;10.174;2024-01-30T12:44:44;100868.03;;;10.32;100.00
62011;BME280;47967;51.756;10.174;2024-01-30T12:48:47;100862.47;;;10.42;99.96
62011;BME280;47967;51.756;10.174;2024-01-30T12:52:51;100853.19;;;10.45;97.42
62011;BME280;47967;51.756;10.174;2024-01-30T12:56:54;100854.06;;;10.45;97.54
62011;BME280;47967;51.756;10.174;2024-01-30T13:00:57;100846.09;;;10.52;96.74
62011;BME280;47967;51.756;10.174;2024-01-30T13:05:00;100861.06;;;10.71;95.74
62011;BME280;47967;51.756;10.174;2024-01-30T13:09:04;100857.34;;;10.72;94.74
62011;BME280;47967;51.756;10.174;2024-01-30T13:13:07;100862.28;;;10.60;95.30
62011;BME280;47967;51.756;10.174;2024-01-30T13:17:20;100873.22;;;10.67;95.03
62011;BME280;47967;51.756;10.174;2024-01-30T13:21:22;100858.69;;;10.68;96.31
62011;BME280;47967;51.756;10.174;2024-01-30T13:25:26;100858.53;;;10.69;95.39
62011;BME280;47967;51.756;10.174;2024-01-30T13:29:29;100846.53;;;10.80;94.35
62011;BME280;47967;51.756;10.174;2024-01-30T13:33:31;100855.47;;;10.81;93.57
62011;BME280;47967;51.756;10.174;2024-01-30T13:37:34;100851.34;;;10.93;94.33
62011;BME280;47967;51.756;10.174;2024-01-30T13:41:38;100853.88;;;10.95;93.40
62011;BME280;47967;51.756;10.174;2024-01-30T13:45:41;100856.50;;;10.71;94.36
62011;BME280;47967;51.756;10.174;2024-01-30T13:49:44;100855.75;;;10.46;97.14
62011;BME280;47967;51.756;10.174;2024-01-30T13:53:46;100859.47;;;10.45;97.59
62011;BME280;47967;51.756;10.174;2024-01-30T13:57:53;100846.28;;;10.42;99.88
62011;BME280;47967;51.756;10.174;2024-01-30T14:01:57;100846.47;;;10.49;100.00
62011;BME280;47967;51.756;10.174;2024-01-30T14:06:00;100860.28;;;10.46;99.00
62011;BME280;47967;51.756;10.174;2024-01-30T14:10:02;100858.25;;;10.31;99.51
62011;BME280;47967;51.756;10.174;2024-01-30T14:14:11;100855.06;;;10.28;99.08
62011;BME280;47967;51.756;10.174;2024-01-30T14:18:13;100851.03;;;10.15;100.00
62011;BME280;47967;51.756;10.174;2024-01-30T14:22:17;100847.00;;;10.03;100.00
62011;BME280;47967;51.756;10.174;2024-01-30T14:26:19;100852.94;;;9.90;100.00
62011;BME280;47967;51.756;10.174;2024-01-30T14:30:23;100852.25;;;9.96;100.00
62011;BME280;47967;51.756;10.174;2024-01-30T14:34:26;100852.91;;;9.98;100.00
62011;BME280;47967;51.756;10.174;2024-01-30T14:38:29;100851.75;;;9.92;100.00
62011;BME280;47967;51.756;10.174;2024-01-30T14:42:31;100860.31;;;9.88;100.00
62011;BME280;47967;51.756;10.174;2024-01-30T14:46:35;100862.84;;;9.81;100.00
62011;BME280;47967;51.756;10.174;2024-01-30T14:50:37;100863.16;;;9.61;100.00
62011;BME280;47967;51.756;10.174;2024-01-30T14:54:40;100861.63;;;9.42;100.00
62011;BME280;47967;51.756;10.174;2024-01-30T14:58:43;100863.63;;;9.32;100.00
62011;BME280;47967;51.756;10.174;2024-01-30T15:02:47;100861.28;;;9.29;100.00
62011;BME280;47967;51.756;10.174;2024-01-30T15:06:49;100866.44;;;9.22;100.00
62011;BME280;47967;51.756;10.174;2024-01-30T15:10:52;100862.72;;;9.15;100.00
62011;BME280;47967;51.756;10.174;2024-01-30T15:14:55;100869.47;;;9.11;100.00
62011;BME280;47967;51.756;10.174;2024-01-30T15:18:59;100864.72;;;9.05;100.00
62011;BME280;47967;51.756;10.174;2024-01-30T15:23:01;100862.38;;;9.10;100.00
62011;BME280;47967;51.756;10.174;2024-01-30T15:27:04;100871.47;;;9.09;100.00
62011;BME280;47967;51.756;10.174;2024-01-30T15:31:06;100868.25;;;9.05;100.00
62011;BME280;47967;51.756;10.174;2024-01-30T15:35:10;100873.06;;;8.93;100.00
62011;BME280;47967;51.756;10.174;2024-01-30T15:39:14;100878.78;;;8.90;100.00
62011;BME280;47967;51.756;10.174;2024-01-30T15:43:18;100888.03;;;8.88;100.00
62011;BME280;47967;51.756;10.174;2024-01-30T15:47:21;100896.59;;;8.83;100.00
62011;BME280;47967;51.756;10.174;2024-01-30T15:51:24;100903.84;;;8.83;100.00
62011;BME280;47967;51.756;10.174;2024-01-30T15:55:30;100898.44;;;8.83;100.00
62011;BME280;47967;51.756;10.174;2024-01-30T15:59:32;100897.72;;;8.72;100.00
62011;BME280;47967;51.756;10.174;2024-01-30T16:03:35;100904.91;;;8.63;100.00
62011;BME280;47967;51.756;10.174;2024-01-30T16:07:39;100887.94;;;8.63;100.00
62011;BME280;47967;51.756;10.174;2024-01-30T16:11:41;100907.53;;;8.55;100.00
62011;BME280;47967;51.756;10.174;2024-01-30T16:15:44;100910.84;;;8.49;100.00
62011;BME280;47967;51.756;10.174;2024-01-30T16:19:47;100916.53;;;8.46;100.00
62011;BME280;47967;51.756;10.174;2024-01-30T16:23:51;100916.84;;;8.43;100.00
62011;BME280;47967;51.756;10.174;2024-01-30T16:27:55;100915.06;;;8.33;100.00
62011;BME280;47967;51.756;10.174;2024-01-30T16:31:57;100926.25;;;8.21;100.00
62011;BME280;47967;51.756;10.174;2024-01-30T16:36:00;100930.09;;;8.18;100.00
62011;BME280;47967;51.756;10.174;2024-01-30T16:40:06;100935.31;;;8.20;100.00
62011;BME280;47967;51.756;10.174;2024-01-30T16:44:10;100939.31;;;8.15;100.00
62011;BME280;47967;51.756;10.174;2024-01-30T16:48:12;100933.69;;;8.27;100.00
62011;BME280;47967;51.756;10.174;2024-01-30T16:52:18;100948.13;;;8.26;100.00
62011;BME280;47967;51.756;10.174;2024-01-30T16:56:23;100944.84;;;8.14;100.00
62011;BME280;47967;51.756;10.174;2024-01-30T17:00:25;100954.06;;;8.11;100.00
62011;BME280;47967;51.756;10.174;2024-01-30T17:04:28;100955.91;;;8.11;100.00
62011;BME280;47967;51.756;10.174;2024-01-30T17:08:31;100952.38;;;8.10;100.00
62011;BME280;47967;51.756;10.174;2024-01-30T17:12:35;100955.53;;;8.06;100.00
62011;BME280;47967;51.756;10.174;2024-01-30T17:16:37;100953.38;;;8.09;100.00
62011;BME280;47967;51.756;10.174;2024-01-30T17:20:40;100955.06;;;8.10;100.00
62011;BME280;47967;51.756;10.174;2024-01-30T17:24:43;100956.00;;;8.01;100.00
62011;BME280;47967;51.756;10.174;2024-01-30T17:28:52;100962.81;;;7.95;100.00
62011;BME280;47967;51.756;10.174;2024-01-30T17:32:55;100956.75;;;7.93;100.00
62011;BME280;47967;51.756;10.174;2024-01-30T17:36:57;100966.94;;;7.90;100.00
62011;BME280;47967;51.756;10.174;2024-01-30T17:41:00;100971.56;;;7.97;100.00
62011;BME280;47967;51.756;10.174;2024-01-30T17:45:14;100975.41;;;8.13;100.00
62011;BME280;47967;51.756;10.174;2024-01-30T17:49:17;100975.19;;;8.24;100.00
62011;BME280;47967;51.756;10.174;2024-01-30T17:53:19;100974.84;;;8.27;100.00
62011;BME280;47967;51.756;10.174;2024-01-30T17:57:22;100977.00;;;8.24;100.00
62011;BME280;47967;51.756;10.174;2024-01-30T18:01:26;100974.81;;;8.19;100.00
62011;BME280;47967;51.756;10.174;2024-01-30T18:05:29;100982.47;;;8.14;100.00
62011;BME280;47967;51.756;10.174;2024-01-30T18:09:32;100971.88;;;8.12;100.00
62011;BME280;47967;51.756;10.174;2024-01-30T18:13:35;100980.66;;;8.14;100.00
62011;BME280;47967;51.756;10.174;2024-01-30T18:17:38;100982.56;;;8.22;100.00
62011;BME280;47967;51.756;10.174;2024-01-30T18:21:42;100973.41;;;7.97;100.00
62011;BME280;47967;51.756;10.174;2024-01-30T18:25:44;100981.00;;;7.83;100.00
62011;BME280;47967;51.756;10.174;2024-01-30T18:29:47;100984.16;;;7.79;100.00
62011;BME280;47967;51.756;10.174;2024-01-30T18:33:55;100987.28;;;7.74;100.00
62011;BME280;47967;51.756;10.174;2024-01-30T18:37:57;100985.28;;;7.76;100.00
62011;BME280;47967;51.756;10.174;2024-01-30T18:42:00;100986.25;;;7.85;100.00
62011;BME280;47967;51.756;10.174;2024-01-30T18:46:02;100989.69;;;7.95;100.00
62011;BME280;47967;51.756;10.174;2024-01-30T18:50:07;100994.06;;;7.96;100.00
62011;BME280;47967;51.756;10.174;2024-01-30T18:54:10;101000.75;;;7.92;100.00
62011;BME280;47967;51.756;10.174;2024-01-30T18:58:13;100989.31;;;7.90;100.00
62011;BME280;47967;51.756;10.174;2024-01-30T19:02:16;100996.91;;;7.95;100.00
62011;BME280;47967;51.756;10.174;2024-01-30T19:06:19;101004.50;;;7.99;100.00
62011;BME280;47967;51.756;10.174;2024-01-30T19:10:22;100996.84;;;8.05;100.00
62011;BME280;47967;51.756;10.174;2024-01-30T19:14:40;101009.50;;;8.12;100.00
62011;BME280;47967;51.756;10.174;2024-01-30T19:18:42;101007.66;;;8.13;100.00
62011;BME280;47967;51.756;10.174;2024-01-30T19:22:47;101008.97;;;8.09;100.00
62011;BME280;47967;51.756;10.174;2024-01-30T19:26:49;100999.59;;;7.95;100.00
62011;BME280;47967;51.756;10.174;2024-01-30T19:30:53;101012.88;;;7.96;100.00
62011;BME280;47967;51.756;10.174;2024-01-30T19:34:56;101023.31;;;7.99;100.00
62011;BME280;47967;51.756;10.174;2024-01-30T19:39:00;101039.47;;;8.17;100.00
62011;BME280;47967;51.756;10.174;2024-01-30T19:43:02;101029.34;;;8.29;100.00
62011;BME280;47967;51.756;10.174;2024-01-30T19:47:05;101042.22;;;8.08;100.00
62011;BME280;47967;51.756;10.174;2024-01-30T19:51:10;101044.88;;;7.90;100.00
62011;BME280;47967;51.756;10.174;2024-01-30T19:55:14;101053.75;;;8.00;100.00
62011;BME280;47967;51.756;10.174;2024-01-30T19:59:17;101057.97;;;8.02;100.00
62011;BME280;47967;51.756;10.174;2024-01-30T20:03:19;101062.97;;;8.33;100.00
62011;BME280;47967;51.756;10.174;2024-01-30T20:07:22;101063.25;;;8.58;100.00
62011;BME280;47967;51.756;10.174;2024-01-30T20:11:25;101074.91;;;8.67;100.00
62011;BME280;47967;51.756;10.174;2024-01-30T20:15:28;101073.66;;;8.79;100.00
62011;BME280;47967;51.756;10.174;2024-01-30T20:19:32;101066.91;;;8.75;100.00
62011;BME280;47967;51.756;10.174;2024-01-30T20:23:38;101080.22;;;8.77;100.00
62011;BME280;47967;51.756;10.174;2024-01-30T20:27:42;101081.03;;;8.77;100.00
62011;BME280;47967;51.756;10.174;2024-01-30T20:31:44;101088.81;;;8.80;100.00
62011;BME280;47967;51.756;10.174;2024-01-30T20:35:47;101081.47;;;8.64;100.00
62011;BME280;47967;51.756;10.174;2024-01-30T20:39:49;101093.84;;;8.57;100.00
62011;BME280;47967;51.756;10.174;2024-01-30T20:43:53;101089.06;;;8.51;100.00
62011;BME280;47967;51.756;10.174;2024-01-30T20:47:56;101099.53;;;8.44;100.00
62011;BME280;47967;51.756;10.174;2024-01-30T20:51:58;101098.25;;;8.30;100.00
62011;BME280;47967;51.756;10.174;2024-01-30T20:56:02;101093.09;;;8.19;100.00
62011;BME280;47967;51.756;10.174;2024-01-30T21:00:06;101084.94;;;8.11;100.00
62011;BME280;47967;51.756;10.174;2024-01-30T21:04:09;101097.19;;;7.95;100.00
62011;BME280;47967;51.756;10.174;2024-01-30T21:08:11;101098.16;;;7.94;100.00
62011;BME280;47967;51.756;10.174;2024-01-30T21:12:14;101096.91;;;7.98;100.00
62011;BME280;47967;51.756;10.174;2024-01-30T21:16:18;101102.13;;;8.00;100.00
62011;BME280;47967;51.756;10.174;2024-01-30T21:20:20;101110.94;;;7.92;100.00
62011;BME280;47967;51.756;10.174;2024-01-30T21:24:23;101118.56;;;7.87;100.00
62011;BME280;47967;51.756;10.174;2024-01-30T21:28:25;101117.63;;;7.78;100.00
62011;BME280;47967;51.756;10.174;2024-01-30T21:32:29;101124.00;;;7.77;100.00
62011;BME280;47967;51.756;10.174;2024-01-30T21:36:32;101130.47;;;7.84;100.00
62011;BME280;47967;51.756;10.174;2024-01-30T21:40:34;101120.00;;;7.91;100.00
62011;BME280;47967;51.756;10.174;2024-01-30T21:44:38;101116.44;;;7.91;100.00
62011;BME280;47967;51.756;10.174;2024-01-30T21:48:42;101133.66;;;7.98;100.00
62011;BME280;47967;51.756;10.174;2024-01-30T21:52:45;101131.34;;;8.03;100.00
62011;BME280;47967;51.756;10.174;2024-01-30T21:56:47;101132.94;;;8.06;100.00
